createdAt,value
2019-03-05T00:01:43.861Z,49.30
2019-03-05T00:04:32.246Z,49.30
2019-03-05T00:07:20.298Z,49.40
2019-03-05T00:10:12.078Z,49.40
2019-03-05T00:13:00.552Z,49.50
2019-03-05T00:15:49.686Z,49.40
2019-03-05T00:18:37.961Z,49.50
2019-03-05T00:21:26.032Z,49.60
2019-03-05T00:24:50.767Z,49.60
2019-03-05T00:27:41.223Z,49.70
2019-03-05T00:30:35.595Z,49.80
2019-03-05T00:33:32.674Z,49.80
2019-03-05T00:36:26.299Z,49.90
2019-03-05T00:39:32.080Z,49.90
2019-03-05T00:42:43.077Z,49.90
2019-03-05T00:45:49.741Z,50.00
2019-03-05T00:48:57.542Z,50.10
2019-03-05T00:52:00.575Z,50.10
2019-03-05T00:54:51.673Z,50.30
2019-03-05T00:57:46.111Z,50.40
2019-03-05T01:00:46.219Z,50.40
2019-03-05T01:03:55.269Z,50.40
2019-03-05T01:06:43.327Z,50.40
2019-03-05T01:09:32.152Z,50.60
2019-03-05T01:12:21.137Z,50.60
2019-03-05T01:15:10.253Z,50.50
2019-03-05T01:17:58.449Z,50.70
2019-03-05T01:20:46.991Z,50.80
2019-03-05T01:23:35.362Z,50.70
2019-03-05T01:26:23.850Z,50.70
2019-03-05T01:29:12.234Z,51.00
2019-03-05T01:32:05.119Z,50.90
2019-03-05T01:34:57.595Z,51.10
2019-03-05T01:37:45.711Z,51.20
2019-03-05T01:40:35.503Z,51.30
2019-03-05T01:43:24.025Z,51.30
2019-03-05T01:46:12.447Z,51.20
2019-03-05T01:49:00.925Z,51.20
2019-03-05T01:51:49.141Z,51.40
2019-03-05T01:54:37.342Z,51.40
2019-03-05T01:57:25.789Z,51.40
2019-03-05T02:00:14.680Z,51.50
2019-03-05T02:03:03.059Z,51.50
2019-03-05T02:05:51.481Z,51.50
2019-03-05T02:08:40.557Z,51.50
2019-03-05T02:11:28.767Z,51.60
2019-03-05T02:14:17.030Z,51.60
2019-03-05T02:17:05.341Z,51.60
2019-03-05T02:19:53.787Z,51.70
2019-03-05T02:22:43.383Z,51.70
2019-03-05T02:25:46.599Z,51.80
2019-03-05T02:28:53.158Z,51.80
2019-03-05T02:32:01.244Z,51.80
2019-03-05T02:35:10.564Z,51.90
2019-03-05T02:38:05.329Z,51.90
2019-03-05T02:40:57.583Z,52.00
2019-03-05T02:43:52.073Z,52.00
2019-03-05T02:46:49.159Z,52.00
2019-03-05T02:49:46.658Z,52.00
2019-03-05T02:52:38.135Z,52.00
2019-03-05T02:55:32.215Z,52.10
2019-03-05T02:58:19.240Z,52.10
2019-03-05T03:01:27.535Z,52.10
2019-03-05T03:04:17.314Z,52.20
2019-03-05T03:07:05.604Z,52.20
2019-03-05T03:09:57.098Z,52.10
2019-03-05T03:12:45.514Z,52.30
2019-03-05T03:15:33.875Z,52.20
2019-03-05T03:18:22.030Z,52.30
2019-03-05T03:21:11.398Z,52.30
2019-03-05T03:23:59.792Z,52.30
2019-03-05T03:26:48.468Z,52.30
2019-03-05T03:29:36.937Z,52.30
2019-03-05T03:32:25.015Z,52.40
2019-03-05T03:35:15.804Z,52.40
2019-03-05T03:38:04.490Z,52.40
2019-03-05T03:40:53.136Z,52.50
2019-03-05T03:43:41.716Z,52.40
2019-03-05T03:46:30.118Z,52.50
2019-03-05T03:49:18.004Z,52.50
2019-03-05T03:52:06.471Z,52.50
2019-03-05T03:54:54.864Z,52.50
2019-03-05T03:57:43.146Z,52.50
2019-03-05T04:00:31.701Z,52.50
2019-03-05T04:03:19.841Z,52.50
2019-03-05T04:06:08.285Z,52.50
2019-03-05T04:08:56.558Z,52.60
2019-03-05T04:11:44.934Z,52.60
2019-03-05T04:14:33.447Z,52.60
2019-03-05T04:17:22.075Z,52.60
2019-03-05T04:20:12.648Z,52.60
2019-03-05T04:23:01.512Z,52.60
2019-03-05T04:25:49.497Z,52.60
2019-03-05T04:28:38.039Z,52.60
2019-03-05T04:31:26.165Z,52.60
2019-03-05T04:34:14.735Z,52.70
2019-03-05T04:37:03.401Z,52.60
2019-03-05T04:39:51.663Z,52.60
2019-03-05T04:42:39.913Z,52.60
2019-03-05T04:45:35.138Z,52.70
2019-03-05T04:48:23.291Z,52.70
2019-03-05T04:51:13.281Z,52.70
2019-03-05T04:54:01.439Z,52.70
2019-03-05T04:56:49.675Z,52.70
2019-03-05T04:59:37.727Z,52.80
2019-03-05T05:02:26.158Z,52.80
2019-03-05T05:05:14.882Z,52.80
2019-03-05T05:08:03.485Z,52.70
2019-03-05T05:10:51.960Z,53.40
2019-03-05T05:13:39.888Z,52.80
2019-03-05T05:16:28.372Z,52.80
2019-03-05T05:19:16.517Z,52.80
2019-03-05T05:22:04.942Z,52.90
2019-03-05T05:24:53.061Z,52.80
2019-03-05T05:27:41.461Z,52.90
2019-03-05T05:30:31.757Z,52.90
2019-03-05T05:33:20.197Z,52.90
2019-03-05T05:36:08.528Z,52.90
2019-03-05T05:38:56.610Z,53.00
2019-03-05T05:41:45.121Z,52.90
2019-03-05T05:44:33.155Z,53.00
2019-03-05T05:47:21.084Z,53.00
2019-03-05T05:50:09.341Z,53.00
2019-03-05T05:52:57.676Z,53.00
2019-03-05T05:55:46.238Z,53.00
2019-03-05T05:58:34.659Z,53.10
2019-03-05T06:01:22.819Z,53.10
2019-03-05T06:04:10.903Z,53.10
2019-03-05T06:06:59.012Z,53.10
2019-03-05T06:09:47.456Z,53.10
2019-03-05T06:12:35.734Z,53.10
2019-03-05T06:15:24.024Z,53.10
2019-03-05T06:18:12.213Z,53.20
2019-03-05T06:21:00.809Z,53.20
2019-03-05T06:23:48.906Z,53.20
2019-03-05T06:26:37.089Z,53.20
2019-03-05T06:29:25.157Z,53.20
2019-03-05T06:32:13.305Z,53.20
2019-03-05T06:35:01.556Z,53.20
2019-03-05T06:37:49.925Z,53.30
2019-03-05T06:40:38.492Z,53.30
2019-03-05T06:43:27.044Z,53.30
2019-03-05T06:46:15.285Z,53.30
2019-03-05T06:49:03.424Z,53.30
2019-03-05T06:51:51.743Z,53.30
2019-03-05T06:54:40.037Z,53.30
2019-03-05T06:57:28.212Z,53.30
2019-03-05T07:00:26.507Z,53.40
2019-03-05T07:03:14.489Z,53.40
2019-03-05T07:06:39.102Z,53.40
2019-03-05T07:09:33.393Z,54.00
2019-03-05T07:12:27.911Z,53.40
2019-03-05T07:15:21.803Z,53.40
2019-03-05T07:18:18.806Z,53.40
2019-03-05T07:21:38.537Z,53.50
2019-03-05T07:24:46.405Z,53.50
2019-03-05T07:27:34.627Z,53.50
2019-03-05T07:30:22.977Z,53.50
2019-03-05T07:33:11.337Z,53.50
2019-03-05T07:36:00.084Z,53.50
2019-03-05T07:38:48.339Z,53.50
2019-03-05T07:41:36.546Z,53.50
2019-03-05T07:44:24.586Z,53.50
2019-03-05T07:47:13.118Z,53.60
2019-03-05T07:50:01.733Z,53.60
2019-03-05T07:52:50.075Z,53.60
2019-03-05T07:55:38.566Z,53.60
2019-03-05T07:58:27.073Z,53.60
2019-03-05T08:01:22.316Z,53.60
2019-03-05T08:04:05.351Z,53.60
2019-03-05T08:06:53.678Z,53.60
2019-03-05T08:09:41.750Z,53.60
2019-03-05T08:12:45.004Z,53.60
2019-03-05T08:15:44.068Z,53.60
2019-03-05T08:18:31.956Z,53.60
2019-03-05T08:21:20.258Z,53.60
2019-03-05T08:24:08.768Z,54.20
2019-03-05T08:26:57.157Z,53.70
2019-03-05T08:29:45.527Z,53.60
2019-03-05T08:32:33.803Z,53.70
2019-03-05T08:35:22.220Z,53.80
2019-03-05T08:38:11.493Z,53.70
2019-03-05T08:40:59.936Z,53.80
2019-03-05T08:43:48.006Z,53.80
2019-03-05T08:46:36.165Z,53.70
2019-03-05T08:49:24.418Z,53.80
2019-03-05T08:52:12.791Z,53.80
2019-03-05T08:55:01.389Z,53.80
2019-03-05T08:57:49.319Z,53.80
2019-03-05T09:00:37.318Z,54.00
2019-03-05T09:03:25.496Z,53.90
2019-03-05T09:06:13.903Z,54.00
2019-03-05T09:09:02.722Z,54.00
2019-03-05T09:11:51.080Z,54.00
2019-03-05T09:14:39.687Z,54.00
2019-03-05T09:17:27.771Z,53.90
2019-03-05T09:20:18.519Z,54.10
2019-03-05T09:23:06.764Z,54.10
2019-03-05T09:25:55.137Z,54.10
2019-03-05T09:28:43.615Z,54.00
2019-03-05T09:31:31.978Z,54.00
2019-03-05T09:34:20.288Z,54.10
2019-03-05T09:37:08.465Z,54.10
2019-03-05T09:39:56.839Z,54.00
2019-03-05T09:42:45.413Z,53.80
2019-03-05T09:45:33.913Z,54.00
2019-03-05T09:48:22.441Z,54.00
2019-03-05T09:51:10.578Z,53.80
2019-03-05T09:53:58.946Z,53.90
2019-03-05T09:56:47.115Z,53.90
2019-03-05T09:59:35.413Z,53.90
2019-03-05T10:02:23.844Z,54.00
2019-03-05T10:05:14.862Z,54.00
2019-03-05T10:08:03.407Z,54.00
2019-03-05T10:10:52.022Z,54.00
2019-03-05T10:13:40.342Z,54.00
2019-03-05T10:16:28.922Z,54.10
2019-03-05T10:19:17.095Z,54.00
2019-03-05T10:22:05.198Z,54.00
2019-03-05T10:24:53.356Z,54.00
2019-03-05T10:27:42.095Z,54.10
2019-03-05T10:30:36.742Z,54.10
2019-03-05T10:33:25.354Z,54.00
2019-03-05T10:36:13.690Z,54.00
2019-03-05T10:39:02.329Z,54.10
2019-03-05T10:41:50.982Z,54.10
2019-03-05T10:44:39.378Z,54.00
2019-03-05T10:47:27.845Z,54.10
2019-03-05T10:50:27.988Z,54.10
2019-03-05T10:53:16.643Z,54.10
2019-03-05T10:56:05.932Z,54.10
2019-03-05T10:58:53.967Z,54.00
2019-03-05T11:01:42.686Z,54.00
2019-03-05T11:04:32.003Z,54.50
2019-03-05T11:07:20.378Z,53.90
2019-03-05T11:10:11.846Z,54.00
2019-03-05T11:13:01.540Z,54.00
2019-03-05T11:15:53.349Z,53.90
2019-03-05T11:18:41.893Z,53.90
2019-03-05T11:21:30.187Z,54.00
2019-03-05T11:24:18.516Z,53.90
2019-03-05T11:27:06.980Z,53.90
2019-03-05T11:29:55.502Z,53.90
2019-03-05T11:32:44.233Z,53.90
2019-03-05T11:35:34.356Z,53.80
2019-03-05T11:38:22.730Z,53.90
2019-03-05T11:41:11.196Z,53.80
2019-03-05T11:43:59.589Z,53.90
2019-03-05T11:46:48.044Z,53.90
2019-03-05T11:49:36.415Z,53.90
2019-03-05T11:52:24.998Z,53.90
2019-03-05T11:55:19.487Z,54.00
2019-03-05T11:58:07.571Z,53.90
2019-03-05T12:01:00.599Z,53.80
2019-03-05T12:03:48.590Z,53.80
2019-03-05T12:06:37.298Z,53.80
2019-03-05T12:09:25.736Z,53.70
2019-03-05T12:12:14.078Z,53.80
2019-03-05T12:15:02.497Z,53.80
2019-03-05T12:17:50.912Z,53.80
2019-03-05T12:20:39.180Z,53.80
2019-03-05T12:23:27.724Z,53.80
2019-03-05T12:26:16.007Z,53.80
2019-03-05T12:29:04.221Z,53.80
2019-03-05T12:31:52.379Z,53.80
2019-03-05T12:34:40.401Z,53.80
2019-03-05T12:37:29.348Z,53.80
2019-03-05T12:40:25.982Z,53.80
2019-03-05T12:43:14.633Z,53.80
2019-03-05T12:46:02.741Z,53.80
2019-03-05T12:48:51.308Z,53.80
2019-03-05T12:51:39.559Z,53.80
2019-03-05T12:54:28.023Z,53.80
2019-03-05T12:57:16.653Z,53.80
2019-03-05T13:00:09.796Z,53.80
2019-03-05T13:02:58.415Z,53.90
2019-03-05T13:05:46.614Z,53.80
2019-03-05T13:08:35.222Z,53.80
2019-03-05T13:11:23.382Z,53.80
2019-03-05T13:14:12.388Z,53.80
2019-03-05T13:17:00.415Z,53.80
2019-03-05T13:19:48.978Z,53.80
2019-03-05T13:22:37.803Z,53.80
2019-03-05T13:25:28.727Z,53.80
2019-03-05T13:28:16.313Z,53.80
2019-03-05T13:31:05.208Z,53.90
2019-03-05T13:33:54.355Z,53.80
2019-03-05T13:36:43.055Z,53.90
2019-03-05T13:39:31.346Z,53.80
2019-03-05T13:42:19.361Z,53.80
2019-03-05T13:45:09.258Z,53.90
2019-03-05T13:48:03.792Z,53.90
2019-03-05T13:51:25.177Z,53.90
2019-03-05T13:54:19.327Z,53.90
2019-03-05T13:57:25.794Z,53.90
2019-03-05T14:00:14.281Z,53.90
2019-03-05T14:03:08.656Z,54.00
2019-03-05T14:06:17.967Z,53.90
2019-03-05T14:09:18.871Z,53.80
2019-03-05T14:12:07.411Z,54.10
2019-03-05T14:14:57.725Z,54.00
2019-03-05T14:17:46.014Z,54.00
2019-03-05T14:20:19.722Z,54.00
2019-03-05T14:23:13.335Z,54.00
2019-03-05T14:25:44.899Z,54.00
2019-03-05T14:28:15.845Z,53.90
2019-03-05T14:30:46.664Z,53.90
2019-03-05T14:33:17.429Z,54.00
2019-03-05T14:35:48.110Z,54.00
2019-03-05T14:38:19.047Z,54.00
2019-03-05T14:40:49.911Z,54.00
2019-03-05T14:43:20.700Z,54.00
2019-03-05T14:45:51.408Z,53.90
2019-03-05T14:48:22.011Z,54.00
2019-03-05T14:50:52.642Z,53.80
2019-03-05T14:53:23.388Z,53.70
2019-03-05T14:55:54.664Z,53.70
2019-03-05T14:58:25.408Z,53.70
2019-03-05T15:00:56.480Z,53.50
2019-03-05T15:03:30.348Z,53.50
2019-03-05T15:06:05.595Z,53.70
2019-03-05T15:08:36.369Z,53.80
2019-03-05T15:11:07.107Z,54.90
2019-03-05T15:13:55.278Z,55.20
2019-03-05T15:16:43.569Z,55.60
2019-03-05T15:19:34.573Z,55.20
2019-03-05T15:22:22.011Z,55.30
2019-03-05T15:25:15.424Z,55.40
2019-03-05T15:28:04.160Z,55.00
2019-03-05T15:30:52.506Z,54.80
2019-03-05T15:33:40.915Z,54.50
2019-03-05T15:36:29.520Z,54.20
2019-03-05T15:39:17.840Z,54.10
2019-03-05T15:42:06.048Z,53.80
2019-03-05T15:44:54.636Z,53.30
2019-03-05T15:47:43.317Z,53.20
2019-03-05T15:50:32.606Z,53.20
2019-03-05T15:53:22.152Z,53.20
2019-03-05T15:56:10.439Z,53.00
2019-03-05T15:58:58.438Z,52.80
2019-03-05T16:01:47.010Z,52.70
2019-03-05T16:04:35.871Z,52.50
2019-03-05T16:07:25.118Z,52.30
2019-03-05T16:10:17.166Z,52.10
2019-03-05T16:13:06.309Z,51.90
2019-03-05T16:15:54.801Z,51.80
2019-03-05T16:18:43.401Z,51.70
2019-03-05T16:21:37.172Z,51.40
2019-03-05T16:24:23.162Z,51.20
2019-03-05T16:27:12.390Z,51.10
2019-03-05T16:30:00.899Z,51.10
2019-03-05T16:32:51.175Z,51.10
2019-03-05T16:35:41.162Z,51.10
2019-03-05T16:38:51.214Z,51.00
2019-03-05T16:41:57.416Z,50.90
2019-03-05T16:44:49.785Z,50.80
2019-03-05T16:47:39.815Z,50.70
2019-03-05T16:50:32.760Z,50.60
2019-03-05T16:53:31.542Z,50.60
2019-03-05T16:56:09.072Z,50.60
2019-03-05T16:58:57.212Z,50.50
2019-03-05T17:01:46.922Z,50.50
2019-03-05T17:04:42.640Z,50.40
2019-03-05T17:07:41.111Z,50.30
2019-03-05T17:10:42.731Z,50.20
2019-03-05T17:13:31.112Z,50.10
2019-03-05T17:16:19.596Z,50.00
2019-03-05T17:19:07.992Z,49.80
2019-03-05T17:21:56.656Z,49.70
2019-03-05T17:24:44.682Z,49.60
2019-03-05T17:27:32.912Z,49.50
2019-03-05T17:30:21.161Z,49.40
2019-03-05T17:33:09.240Z,49.40
2019-03-05T17:35:57.277Z,49.30
2019-03-05T17:38:45.534Z,49.20
2019-03-05T17:41:33.871Z,49.20
2019-03-05T17:44:22.069Z,49.10
2019-03-05T17:47:10.373Z,49.00
2019-03-05T17:49:58.733Z,48.90
2019-03-05T17:52:47.071Z,48.80
2019-03-05T17:55:35.278Z,48.80
2019-03-05T17:58:23.748Z,48.70
2019-03-05T18:01:12.649Z,48.70
2019-03-05T18:04:00.918Z,48.60
2019-03-05T18:06:49.661Z,48.60
2019-03-05T18:09:41.059Z,48.40
2019-03-05T18:12:33.500Z,48.40
2019-03-05T18:15:22.064Z,48.30
2019-03-05T18:18:10.380Z,48.20
2019-03-05T18:20:58.931Z,48.20
2019-03-05T18:23:47.225Z,48.20
2019-03-05T18:26:35.121Z,48.30
2019-03-05T18:29:23.620Z,48.40
2019-03-05T18:32:12.120Z,48.40
2019-03-05T18:35:00.521Z,48.40
2019-03-05T18:37:49.067Z,48.30
2019-03-05T18:40:37.644Z,48.40
2019-03-05T18:43:26.441Z,48.40
2019-03-05T18:46:17.397Z,48.30
2019-03-05T18:49:06.277Z,48.40
2019-03-05T18:51:54.769Z,48.30
2019-03-05T18:54:43.339Z,48.20
2019-03-05T18:57:31.519Z,48.20
2019-03-05T19:00:25.745Z,48.30
2019-03-05T19:03:16.574Z,48.30
2019-03-05T19:06:04.992Z,48.30
2019-03-05T19:08:53.310Z,48.20
2019-03-05T19:11:41.560Z,48.20
2019-03-05T19:14:30.229Z,48.20
2019-03-05T19:17:20.893Z,48.20
2019-03-05T19:20:17.285Z,48.20
2019-03-05T19:23:06.128Z,48.20
2019-03-05T19:25:54.772Z,48.20
2019-03-05T19:28:43.259Z,48.20
2019-03-05T19:31:31.744Z,48.10
2019-03-05T19:34:20.251Z,48.10
2019-03-05T19:37:09.545Z,48.10
2019-03-05T19:39:58.243Z,48.10
2019-03-05T19:42:46.605Z,48.10
2019-03-05T19:45:35.162Z,48.00
2019-03-05T19:48:23.524Z,48.00
2019-03-05T19:51:12.182Z,47.90
2019-03-05T19:54:00.531Z,47.90
2019-03-05T19:56:48.953Z,47.90
2019-03-05T19:59:37.572Z,47.90
2019-03-05T20:02:26.350Z,47.90
2019-03-05T20:05:16.681Z,47.90
2019-03-05T20:08:05.459Z,47.80
2019-03-05T20:10:54.253Z,47.80
2019-03-05T20:13:42.943Z,47.90
2019-03-05T20:16:31.603Z,47.90
2019-03-05T20:19:20.384Z,47.80
2019-03-05T20:22:08.858Z,47.80
2019-03-05T20:24:57.515Z,47.80
2019-03-05T20:27:46.221Z,47.70
2019-03-05T20:30:34.962Z,47.60
2019-03-05T20:33:06.166Z,47.60
2019-03-05T20:35:54.819Z,47.60
2019-03-05T20:38:43.335Z,47.60
2019-03-05T20:41:31.793Z,47.60
2019-03-05T20:44:20.300Z,47.60
2019-03-05T20:47:08.921Z,47.60
2019-03-05T20:49:57.143Z,47.60
2019-03-05T20:52:45.893Z,47.60
2019-03-05T20:55:34.491Z,47.60
2019-03-05T20:58:23.025Z,47.60
2019-03-05T21:01:11.664Z,47.60
2019-03-05T21:04:00.444Z,47.50
2019-03-05T21:06:49.189Z,47.50
2019-03-05T21:09:38.001Z,47.50
2019-03-05T21:12:26.387Z,47.40
2019-03-05T21:15:17.319Z,47.50
2019-03-05T21:18:08.716Z,47.40
2019-03-05T21:20:57.216Z,47.40
2019-03-05T21:23:45.769Z,47.50
2019-03-05T21:26:34.324Z,47.50
2019-03-05T21:29:22.659Z,47.50
2019-03-05T21:32:11.101Z,47.60
2019-03-05T21:34:59.916Z,47.60
2019-03-05T21:37:48.516Z,47.70
2019-03-05T21:40:37.176Z,47.80
2019-03-05T21:43:25.601Z,47.80
2019-03-05T21:46:16.848Z,47.90
2019-03-05T21:49:05.439Z,47.90
2019-03-05T21:51:54.193Z,48.00
2019-03-05T21:54:42.489Z,48.10
2019-03-05T21:57:30.940Z,48.10
2019-03-05T22:00:22.487Z,48.20
2019-03-05T22:03:10.860Z,48.40
2019-03-05T22:05:59.106Z,48.40
2019-03-05T22:08:47.130Z,48.50
2019-03-05T22:11:35.268Z,48.60
2019-03-05T22:14:23.332Z,48.70
2019-03-05T22:17:12.001Z,48.70
2019-03-05T22:20:00.382Z,48.90
2019-03-05T22:22:48.844Z,49.00
2019-03-05T22:25:37.226Z,49.00
2019-03-05T22:28:25.269Z,49.10
2019-03-05T22:31:13.788Z,49.10
2019-03-05T22:33:56.162Z,49.20
2019-03-05T22:36:44.442Z,49.30
2019-03-05T22:39:32.803Z,49.40
2019-03-05T22:42:20.858Z,49.50
2019-03-05T22:45:14.815Z,49.50
2019-03-05T22:48:03.222Z,49.60
2019-03-05T22:50:51.536Z,49.70
2019-03-05T22:53:39.554Z,49.80
2019-03-05T22:56:28.124Z,49.80
2019-03-05T22:59:16.292Z,50.00
2019-03-05T23:02:05.186Z,50.10
2019-03-05T23:04:53.636Z,50.20
2019-03-05T23:07:42.066Z,50.20
2019-03-05T23:10:30.591Z,50.20
2019-03-05T23:13:19.235Z,50.30
2019-03-05T23:16:07.548Z,50.40
2019-03-05T23:18:56.055Z,50.40
2019-03-05T23:21:44.710Z,50.50
2019-03-05T23:24:32.993Z,50.50
2019-03-05T23:27:21.297Z,50.60
2019-03-05T23:30:22.580Z,50.60
2019-03-05T23:33:11.238Z,50.80
2019-03-05T23:36:00.438Z,50.70
2019-03-05T23:38:48.914Z,50.70
2019-03-05T23:41:37.248Z,50.80
2019-03-05T23:44:25.791Z,50.80
2019-03-05T23:47:14.094Z,50.80
2019-03-05T23:50:02.321Z,50.90
2019-03-05T23:52:50.705Z,50.90
2019-03-05T23:55:39.195Z,50.90
2019-03-05T23:58:27.655Z,50.90
